sensor_id;sensor_type;location;lat;lon;timestamp;pressure;altitude;pressure_sealevel;temperature
6550;BMP280;15142;48.888;9.134;2023-02-24T00:01:58;97669.84;;;9.33
6550;BMP280;15142;48.888;9.134;2023-02-24T00:04:28;97667.28;;;9.33
6550;BMP280;15142;48.888;9.134;2023-02-24T00:06:56;97669.09;;;9.32
6550;BMP280;15142;48.888;9.134;2023-02-24T00:09:25;97669.84;;;9.33
6550;BMP280;15142;48.888;9.134;2023-02-24T00:11:56;97671.88;;;9.31
6550;BMP280;15142;48.888;9.134;2023-02-24T00:14:25;97668.88;;;9.29
6550;BMP280;15142;48.888;9.134;2023-02-24T00:16:52;97668.88;;;9.29
6550;BMP280;15142;48.888;9.134;2023-02-24T00:19:21;97665.34;;;9.25
6550;BMP280;15142;48.888;9.134;2023-02-24T00:21:48;97653.09;;;9.27
6550;BMP280;15142;48.888;9.134;2023-02-24T00:24:16;97652.84;;;9.28
6550;BMP280;15142;48.888;9.134;2023-02-24T00:26:43;97654.34;;;9.29
6550;BMP280;15142;48.888;9.134;2023-02-24T00:29:13;97653.91;;;9.23
6550;BMP280;15142;48.888;9.134;2023-02-24T00:31:39;97651.66;;;9.21
6550;BMP280;15142;48.888;9.134;2023-02-24T00:34:08;97646.84;;;9.20
6550;BMP280;15142;48.888;9.134;2023-02-24T00:36:36;97651.94;;;9.20
6550;BMP280;15142;48.888;9.134;2023-02-24T00:39:05;97637.72;;;9.14
6550;BMP280;15142;48.888;9.134;2023-02-24T00:41:34;97638.25;;;9.11
6550;BMP280;15142;48.888;9.134;2023-02-24T00:44:03;97635.03;;;9.05
6550;BMP280;15142;48.888;9.134;2023-02-24T00:46:33;97637.81;;;9.04
6550;BMP280;15142;48.888;9.134;2023-02-24T00:49:01;97633.03;;;9.02
6550;BMP280;15142;48.888;9.134;2023-02-24T00:51:31;97635.81;;;9.01
6550;BMP280;15142;48.888;9.134;2023-02-24T00:54:01;97633.47;;;9.04
6550;BMP280;15142;48.888;9.134;2023-02-24T00:56:29;97631.97;;;9.03
6550;BMP280;15142;48.888;9.134;2023-02-24T00:58:57;97632.53;;;9.00
6550;BMP280;15142;48.888;9.134;2023-02-24T01:01:26;97633.56;;;8.99
6550;BMP280;15142;48.888;9.134;2023-02-24T01:03:54;97626.94;;;8.98
6550;BMP280;15142;48.888;9.134;2023-02-24T01:06:23;97634.81;;;8.97
6550;BMP280;15142;48.888;9.134;2023-02-24T01:08:51;97623.19;;;8.91
6550;BMP280;15142;48.888;9.134;2023-02-24T01:11:20;97632.13;;;8.89
6550;BMP280;15142;48.888;9.134;2023-02-24T01:14:06;97637.75;;;8.86
6550;BMP280;15142;48.888;9.134;2023-02-24T01:16:34;97629.66;;;8.84
6550;BMP280;15142;48.888;9.134;2023-02-24T01:19:02;97626.78;;;8.85
6550;BMP280;15142;48.888;9.134;2023-02-24T01:21:30;97614.38;;;8.84
6550;BMP280;15142;48.888;9.134;2023-02-24T01:23:57;97619.47;;;8.84
6550;BMP280;15142;48.888;9.134;2023-02-24T01:26:23;97619.47;;;8.84
6550;BMP280;15142;48.888;9.134;2023-02-24T01:28:52;97614.84;;;8.86
6550;BMP280;15142;48.888;9.134;2023-02-24T01:31:19;97609.28;;;8.84
6550;BMP280;15142;48.888;9.134;2023-02-24T01:33:46;97614.31;;;8.89
6550;BMP280;15142;48.888;9.134;2023-02-24T01:36:17;97609.81;;;8.81
6550;BMP280;15142;48.888;9.134;2023-02-24T01:38:45;97607.25;;;8.81
6550;BMP280;15142;48.888;9.134;2023-02-24T01:41:15;97601.34;;;8.85
6550;BMP280;15142;48.888;9.134;2023-02-24T01:43:57;97605.00;;;8.79
6550;BMP280;15142;48.888;9.134;2023-02-24T01:46:25;97604.22;;;8.79
6550;BMP280;15142;48.888;9.134;2023-02-24T01:48:55;97600.66;;;8.80
6550;BMP280;15142;48.888;9.134;2023-02-24T01:51:28;97604.22;;;8.84
6550;BMP280;15142;48.888;9.134;2023-02-24T01:53:56;97606.75;;;8.79
6550;BMP280;15142;48.888;9.134;2023-02-24T01:56:23;97609.31;;;8.79
6550;BMP280;15142;48.888;9.134;2023-02-24T01:58:55;97601.75;;;8.74
6550;BMP280;15142;48.888;9.134;2023-02-24T02:01:23;97596.66;;;8.74
6550;BMP280;15142;48.888;9.134;2023-02-24T02:03:52;97596.44;;;8.70
6550;BMP280;15142;48.888;9.134;2023-02-24T02:06:20;97599.72;;;8.71
6550;BMP280;15142;48.888;9.134;2023-02-24T02:08:49;97592.38;;;8.69
6550;BMP280;15142;48.888;9.134;2023-02-24T02:11:16;97587.53;;;8.68
6550;BMP280;15142;48.888;9.134;2023-02-24T02:13:45;97580.66;;;8.68
6550;BMP280;15142;48.888;9.134;2023-02-24T02:16:26;97584.50;;;8.66
6550;BMP280;15142;48.888;9.134;2023-02-24T02:19:03;97579.38;;;8.71
6550;BMP280;15142;48.888;9.134;2023-02-24T02:24:47;97576.34;;;8.69
6550;BMP280;15142;48.888;9.134;2023-02-24T02:27:44;97569.97;;;8.71
6550;BMP280;15142;48.888;9.134;2023-02-24T02:33:55;97566.16;;;8.69
6550;BMP280;15142;48.888;9.134;2023-02-24T02:36:30;97571.25;;;8.69
6550;BMP280;15142;48.888;9.134;2023-02-24T02:39:04;97558.03;;;8.67
6550;BMP280;15142;48.888;9.134;2023-02-24T02:41:45;97563.13;;;8.67
6550;BMP280;15142;48.888;9.134;2023-02-24T02:44:19;97562.66;;;8.65
6550;BMP280;15142;48.888;9.134;2023-02-24T02:46:53;97559.34;;;8.64
6550;BMP280;15142;48.888;9.134;2023-02-24T02:49:29;97549.44;;;8.63
6550;BMP280;15142;48.888;9.134;2023-02-24T02:52:02;97555.56;;;8.62
6550;BMP280;15142;48.888;9.134;2023-02-24T02:54:36;97557.06;;;8.63
6550;BMP280;15142;48.888;9.134;2023-02-24T02:57:08;97552.06;;;8.53
6550;BMP280;15142;48.888;9.134;2023-02-24T02:59:41;97557.88;;;8.59
6550;BMP280;15142;48.888;9.134;2023-02-24T03:02:15;97542.34;;;8.60
6550;BMP280;15142;48.888;9.134;2023-02-24T03:04:48;97538.00;;;8.61
6550;BMP280;15142;48.888;9.134;2023-02-24T03:07:18;97531.44;;;8.60
6550;BMP280;15142;48.888;9.134;2023-02-24T03:09:48;97534.03;;;8.55
6550;BMP280;15142;48.888;9.134;2023-02-24T03:12:20;97527.53;;;8.44
6550;BMP280;15142;48.888;9.134;2023-02-24T03:14:51;97531.06;;;8.43
6550;BMP280;15142;48.888;9.134;2023-02-24T03:17:23;97523.97;;;8.40
6550;BMP280;15142;48.888;9.134;2023-02-24T03:19:57;97525.50;;;8.41
6550;BMP280;15142;48.888;9.134;2023-02-24T03:22:29;97521.22;;;8.36
6550;BMP280;15142;48.888;9.134;2023-02-24T03:24:59;97518.19;;;8.34
6550;BMP280;15142;48.888;9.134;2023-02-24T03:27:36;97513.09;;;8.34
6550;BMP280;15142;48.888;9.134;2023-02-24T03:30:13;97516.44;;;8.30
6550;BMP280;15142;48.888;9.134;2023-02-24T03:32:45;97513.66;;;8.32
6550;BMP280;15142;48.888;9.134;2023-02-24T03:35:23;97509.56;;;8.31
6550;BMP280;15142;48.888;9.134;2023-02-24T03:37:50;97514.44;;;8.27
6550;BMP280;15142;48.888;9.134;2023-02-24T03:40:20;97511.69;;;8.24
6550;BMP280;15142;48.888;9.134;2023-02-24T03:42:57;97519.31;;;8.24
6550;BMP280;15142;48.888;9.134;2023-02-24T03:45:30;97520.22;;;8.32
6550;BMP280;15142;48.888;9.134;2023-02-24T03:48:00;97517.19;;;8.31
6550;BMP280;15142;48.888;9.134;2023-02-24T03:50:30;97518.78;;;8.27
6550;BMP280;15142;48.888;9.134;2023-02-24T03:53:11;97514.25;;;8.19
6550;BMP280;15142;48.888;9.134;2023-02-24T03:55:53;97514.81;;;8.11
6550;BMP280;15142;48.888;9.134;2023-02-24T03:58:35;97521.94;;;8.14
6550;BMP280;15142;48.888;9.134;2023-02-24T04:01:09;97514.03;;;8.15
6550;BMP280;15142;48.888;9.134;2023-02-24T04:03:43;97517.09;;;8.12
6550;BMP280;15142;48.888;9.134;2023-02-24T04:06:33;97510.56;;;8.06
6550;BMP280;15142;48.888;9.134;2023-02-24T04:09:06;97504.91;;;8.09
6550;BMP280;15142;48.888;9.134;2023-02-24T04:11:48;97519.41;;;8.09
6550;BMP280;15142;48.888;9.134;2023-02-24T04:14:20;97511.31;;;8.07
6550;BMP280;15142;48.888;9.134;2023-02-24T04:16:53;97520.97;;;8.05
6550;BMP280;15142;48.888;9.134;2023-02-24T04:19:23;97513.88;;;8.02
6550;BMP280;15142;48.888;9.134;2023-02-24T04:21:55;97510.31;;;8.03
6550;BMP280;15142;48.888;9.134;2023-02-24T04:24:27;97515.16;;;8.00
6550;BMP280;15142;48.888;9.134;2023-02-24T04:26:57;97520.50;;;7.98
6550;BMP280;15142;48.888;9.134;2023-02-24T04:29:30;97517.50;;;7.91
6550;BMP280;15142;48.888;9.134;2023-02-24T04:32:04;97510.13;;;7.95
6550;BMP280;15142;48.888;9.134;2023-02-24T04:34:31;97512.44;;;7.91
6550;BMP280;15142;48.888;9.134;2023-02-24T04:37:01;97497.25;;;7.81
6550;BMP280;15142;48.888;9.134;2023-02-24T04:39:30;97502.34;;;7.81
6550;BMP280;15142;48.888;9.134;2023-02-24T04:41:59;97502.81;;;7.88
6550;BMP280;15142;48.888;9.134;2023-02-24T04:44:26;97502.81;;;7.88
6550;BMP280;15142;48.888;9.134;2023-02-24T04:46:53;97491.94;;;7.83
6550;BMP280;15142;48.888;9.134;2023-02-24T04:49:21;97490.84;;;7.89
6550;BMP280;15142;48.888;9.134;2023-02-24T04:51:47;97493.66;;;7.87
6550;BMP280;15142;48.888;9.134;2023-02-24T04:54:18;97487.56;;;7.88
6550;BMP280;15142;48.888;9.134;2023-02-24T04:56:47;97487.59;;;7.83
6550;BMP280;15142;48.888;9.134;2023-02-24T04:59:15;97485.31;;;7.87
6550;BMP280;15142;48.888;9.134;2023-02-24T05:01:43;97470.28;;;7.90
6550;BMP280;15142;48.888;9.134;2023-02-24T05:04:10;97465.16;;;7.95
6550;BMP280;15142;48.888;9.134;2023-02-24T05:06:39;97455.53;;;7.87
6550;BMP280;15142;48.888;9.134;2023-02-24T05:09:09;97461.69;;;7.81
6550;BMP280;15142;48.888;9.134;2023-02-24T05:11:40;97460.19;;;7.80
6550;BMP280;15142;48.888;9.134;2023-02-24T05:14:08;97449.25;;;7.85
6550;BMP280;15142;48.888;9.134;2023-02-24T05:16:39;97447.47;;;7.85
6550;BMP280;15142;48.888;9.134;2023-02-24T05:19:07;97446.25;;;7.78
6550;BMP280;15142;48.888;9.134;2023-02-24T05:21:51;97441.72;;;7.75
6550;BMP280;15142;48.888;9.134;2023-02-24T05:24:17;97435.63;;;7.76
6550;BMP280;15142;48.888;9.134;2023-02-24T05:26:45;97433.59;;;7.73
6550;BMP280;15142;48.888;9.134;2023-02-24T05:29:12;97433.84;;;7.71
6550;BMP280;15142;48.888;9.134;2023-02-24T05:31:38;97433.34;;;7.69
6550;BMP280;15142;48.888;9.134;2023-02-24T05:34:07;97431.31;;;7.71
6550;BMP280;15142;48.888;9.134;2023-02-24T05:36:35;97427.75;;;7.72
6550;BMP280;15142;48.888;9.134;2023-02-24T05:39:03;97422.09;;;7.80
6550;BMP280;15142;48.888;9.134;2023-02-24T05:41:32;97416.31;;;7.75
6550;BMP280;15142;48.888;9.134;2023-02-24T05:44:04;97422.13;;;7.75
6550;BMP280;15142;48.888;9.134;2023-02-24T05:46:35;97423.69;;;7.76
6550;BMP280;15142;48.888;9.134;2023-02-24T05:49:04;97416.84;;;7.72
6550;BMP280;15142;48.888;9.134;2023-02-24T05:51:34;97423.19;;;7.69
6550;BMP280;15142;48.888;9.134;2023-02-24T05:54:01;97414.66;;;7.61
6550;BMP280;15142;48.888;9.134;2023-02-24T05:56:30;97407.59;;;7.53
6550;BMP280;15142;48.888;9.134;2023-02-24T05:59:00;97412.13;;;7.56
6550;BMP280;15142;48.888;9.134;2023-02-24T06:01:34;97416.47;;;7.55
6550;BMP280;15142;48.888;9.134;2023-02-24T06:04:03;97407.34;;;7.54
6550;BMP280;15142;48.888;9.134;2023-02-24T06:06:32;97410.16;;;7.48
6550;BMP280;15142;48.888;9.134;2023-02-24T06:09:01;97406.09;;;7.52
6550;BMP280;15142;48.888;9.134;2023-02-24T06:11:32;97416.75;;;7.49
6550;BMP280;15142;48.888;9.134;2023-02-24T06:13:59;97400.47;;;7.55
6550;BMP280;15142;48.888;9.134;2023-02-24T06:16:26;97400.28;;;7.46
6550;BMP280;15142;48.888;9.134;2023-02-24T06:18:54;97399.25;;;7.47
6550;BMP280;15142;48.888;9.134;2023-02-24T06:21:22;97396.44;;;7.49
6550;BMP280;15142;48.888;9.134;2023-02-24T06:23:50;97395.44;;;7.45
6550;BMP280;15142;48.888;9.134;2023-02-24T06:26:16;97402.06;;;7.46
6550;BMP280;15142;48.888;9.134;2023-02-24T06:28:45;97395.94;;;7.47
6550;BMP280;15142;48.888;9.134;2023-02-24T06:31:13;97387.13;;;7.44
6550;BMP280;15142;48.888;9.134;2023-02-24T06:33:40;97390.88;;;7.47
6550;BMP280;15142;48.888;9.134;2023-02-24T06:36:08;97389.88;;;7.48
6550;BMP280;15142;48.888;9.134;2023-02-24T06:38:37;97389.88;;;7.48
6550;BMP280;15142;48.888;9.134;2023-02-24T06:41:04;97390.88;;;7.47
6550;BMP280;15142;48.888;9.134;2023-02-24T06:43:35;97386.53;;;7.52
6550;BMP280;15142;48.888;9.134;2023-02-24T06:46:03;97376.97;;;7.44
6550;BMP280;15142;48.888;9.134;2023-02-24T06:48:31;97385.28;;;7.45
6550;BMP280;15142;48.888;9.134;2023-02-24T06:51:02;97386.81;;;7.46
6550;BMP280;15142;48.888;9.134;2023-02-24T06:53:30;97386.28;;;7.49
6550;BMP280;15142;48.888;9.134;2023-02-24T06:56:03;97384.25;;;7.51
6550;BMP280;15142;48.888;9.134;2023-02-24T06:58:33;97390.63;;;7.48
6550;BMP280;15142;48.888;9.134;2023-02-24T07:00:59;97383.75;;;7.49
6550;BMP280;15142;48.888;9.134;2023-02-24T07:03:28;97380.22;;;7.45
6550;BMP280;15142;48.888;9.134;2023-02-24T07:06:04;97382.25;;;7.48
6550;BMP280;15142;48.888;9.134;2023-02-24T07:08:46;97380.16;;;7.55
6550;BMP280;15142;48.888;9.134;2023-02-24T07:11:13;97379.59;;;7.58
6550;BMP280;15142;48.888;9.134;2023-02-24T07:13:42;97381.88;;;7.59
6550;BMP280;15142;48.888;9.134;2023-02-24T07:16:08;97379.59;;;7.58
6550;BMP280;15142;48.888;9.134;2023-02-24T07:18:37;97373.59;;;7.54
6550;BMP280;15142;48.888;9.134;2023-02-24T07:21:06;97381.13;;;7.59
6550;BMP280;15142;48.888;9.134;2023-02-24T07:23:37;97365.69;;;7.55
6550;BMP280;15142;48.888;9.134;2023-02-24T07:26:08;97372.47;;;7.65
6550;BMP280;15142;48.888;9.134;2023-02-24T07:28:36;97367.66;;;7.63
6550;BMP280;15142;48.888;9.134;2023-02-24T07:31:05;97369.44;;;7.63
6550;BMP280;15142;48.888;9.134;2023-02-24T07:33:34;97370.03;;;7.55
6550;BMP280;15142;48.888;9.134;2023-02-24T07:36:01;97372.47;;;7.60
6550;BMP280;15142;48.888;9.134;2023-02-24T07:38:34;97368.41;;;7.64
6550;BMP280;15142;48.888;9.134;2023-02-24T07:41:01;97364.84;;;7.65
6550;BMP280;15142;48.888;9.134;2023-02-24T07:43:32;97367.06;;;7.71
6550;BMP280;15142;48.888;9.134;2023-02-24T07:46:05;97366.38;;;7.66
6550;BMP280;15142;48.888;9.134;2023-02-24T07:48:32;97365.97;;;7.54
6550;BMP280;15142;48.888;9.134;2023-02-24T07:51:00;97365.38;;;7.62
6550;BMP280;15142;48.888;9.134;2023-02-24T07:53:27;97359.28;;;7.58
6550;BMP280;15142;48.888;9.134;2023-02-24T07:55:53;97365.91;;;7.59
6550;BMP280;15142;48.888;9.134;2023-02-24T07:58:20;97364.84;;;7.65
6550;BMP280;15142;48.888;9.134;2023-02-24T08:00:49;97360.25;;;7.67
6550;BMP280;15142;48.888;9.134;2023-02-24T08:03:25;97361.81;;;7.63
6550;BMP280;15142;48.888;9.134;2023-02-24T08:05:55;97352.91;;;7.65
6550;BMP280;15142;48.888;9.134;2023-02-24T08:08:24;97351.50;;;7.77
6550;BMP280;15142;48.888;9.134;2023-02-24T08:10:51;97347.13;;;7.88
6550;BMP280;15142;48.888;9.134;2023-02-24T08:13:28;97350.28;;;7.75
6550;BMP280;15142;48.888;9.134;2023-02-24T08:18:29;97342.66;;;7.75
6550;BMP280;15142;48.888;9.134;2023-02-24T08:21:02;97351.56;;;7.72
6550;BMP280;15142;48.888;9.134;2023-02-24T08:23:29;97344.03;;;7.91
6550;BMP280;15142;48.888;9.134;2023-02-24T08:26:01;97342.22;;;7.96
6550;BMP280;15142;48.888;9.134;2023-02-24T08:28:27;97331.91;;;7.83
6550;BMP280;15142;48.888;9.134;2023-02-24T08:30:54;97341.22;;;7.92
6550;BMP280;15142;48.888;9.134;2023-02-24T08:33:21;97342.78;;;7.88
6550;BMP280;15142;48.888;9.134;2023-02-24T08:35:52;97327.00;;;7.91
6550;BMP280;15142;48.888;9.134;2023-02-24T08:38:25;97328.69;;;8.01
6550;BMP280;15142;48.888;9.134;2023-02-24T08:41:04;97324.94;;;7.93
6550;BMP280;15142;48.888;9.134;2023-02-24T08:43:37;97323.59;;;8.01
6550;BMP280;15142;48.888;9.134;2023-02-24T08:46:12;97323.97;;;7.89
6550;BMP280;15142;48.888;9.134;2023-02-24T08:48:44;97324.03;;;7.84
6550;BMP280;15142;48.888;9.134;2023-02-24T08:51:14;97322.41;;;7.93
6550;BMP280;15142;48.888;9.134;2023-02-24T08:53:43;97321.59;;;7.98
6550;BMP280;15142;48.888;9.134;2023-02-24T08:56:12;97314.19;;;8.01
6550;BMP280;15142;48.888;9.134;2023-02-24T08:58:50;97299.50;;;7.98
6550;BMP280;15142;48.888;9.134;2023-02-24T09:01:24;97311.13;;;8.04
6550;BMP280;15142;48.888;9.134;2023-02-24T09:03:53;97312.47;;;7.97
6550;BMP280;15142;48.888;9.134;2023-02-24T09:06:25;97307.81;;;8.03
6550;BMP280;15142;48.888;9.134;2023-02-24T09:08:53;97309.72;;;8.16
6550;BMP280;15142;48.888;9.134;2023-02-24T09:11:42;97312.41;;;8.25
6550;BMP280;15142;48.888;9.134;2023-02-24T09:14:11;97301.00;;;8.22
6550;BMP280;15142;48.888;9.134;2023-02-24T09:16:42;97308.38;;;8.24
6550;BMP280;15142;48.888;9.134;2023-02-24T09:19:31;97303.81;;;8.21
6550;BMP280;15142;48.888;9.134;2023-02-24T09:22:24;97295.31;;;8.30
6550;BMP280;15142;48.888;9.134;2023-02-24T09:24:59;97291.72;;;8.49
6550;BMP280;15142;48.888;9.134;2023-02-24T09:27:47;97295.31;;;8.48
6550;BMP280;15142;48.888;9.134;2023-02-24T09:30:18;97292.31;;;8.46
6550;BMP280;15142;48.888;9.134;2023-02-24T09:33:11;97290.84;;;8.40
6550;BMP280;15142;48.888;9.134;2023-02-24T09:35:47;97299.66;;;8.48
6550;BMP280;15142;48.888;9.134;2023-02-24T09:38:17;97294.25;;;8.54
6550;BMP280;15142;48.888;9.134;2023-02-24T09:40:45;97283.63;;;8.47
6550;BMP280;15142;48.888;9.134;2023-02-24T09:43:19;97284.69;;;8.64
6550;BMP280;15142;48.888;9.134;2023-02-24T09:45:53;97281.41;;;8.64
6550;BMP280;15142;48.888;9.134;2023-02-24T09:48:34;97292.03;;;8.66
6550;BMP280;15142;48.888;9.134;2023-02-24T09:51:13;97272.22;;;8.63
6550;BMP280;15142;48.888;9.134;2023-02-24T09:53:49;97284.59;;;8.51
6550;BMP280;15142;48.888;9.134;2023-02-24T09:56:36;97272.94;;;8.50
6550;BMP280;15142;48.888;9.134;2023-02-24T09:59:11;97277.88;;;8.60
6550;BMP280;15142;48.888;9.134;2023-02-24T10:01:55;97267.56;;;8.70
6550;BMP280;15142;48.888;9.134;2023-02-24T10:04:43;97268.19;;;8.62
6550;BMP280;15142;48.888;9.134;2023-02-24T10:07:28;97256.75;;;8.78
6550;BMP280;15142;48.888;9.134;2023-02-24T10:10:07;97254.44;;;8.94
6550;BMP280;15142;48.888;9.134;2023-02-24T10:12:47;97250.06;;;9.00
6550;BMP280;15142;48.888;9.134;2023-02-24T10:15:18;97264.94;;;9.06
6550;BMP280;15142;48.888;9.134;2023-02-24T10:18:20;97258.66;;;8.86
6550;BMP280;15142;48.888;9.134;2023-02-24T10:20:52;97257.44;;;8.83
6550;BMP280;15142;48.888;9.134;2023-02-24T10:23:27;97249.34;;;8.63
6550;BMP280;15142;48.888;9.134;2023-02-24T10:26:02;97254.44;;;8.63
6550;BMP280;15142;48.888;9.134;2023-02-24T10:28:37;97250.88;;;8.64
6550;BMP280;15142;48.888;9.134;2023-02-24T10:31:09;97255.63;;;8.52
6550;BMP280;15142;48.888;9.134;2023-02-24T10:33:50;97248.69;;;8.39
6550;BMP280;15142;48.888;9.134;2023-02-24T10:36:19;97243.88;;;8.56
6550;BMP280;15142;48.888;9.134;2023-02-24T10:38:51;97244.59;;;8.38
6550;BMP280;15142;48.888;9.134;2023-02-24T10:41:22;97243.16;;;8.51
6550;BMP280;15142;48.888;9.134;2023-02-24T10:43:54;97238.72;;;8.43
6550;BMP280;15142;48.888;9.134;2023-02-24T10:46:24;97237.81;;;8.34
6550;BMP280;15142;48.888;9.134;2023-02-24T10:48:53;97227.94;;;8.32
6550;BMP280;15142;48.888;9.134;2023-02-24T10:51:28;97225.88;;;8.16
6550;BMP280;15142;48.888;9.134;2023-02-24T10:54:11;97227.56;;;8.21
6550;BMP280;15142;48.888;9.134;2023-02-24T10:56:57;97227.44;;;8.31
6550;BMP280;15142;48.888;9.134;2023-02-24T10:59:43;97209.50;;;8.40
6550;BMP280;15142;48.888;9.134;2023-02-24T11:02:24;97205.13;;;8.28
6550;BMP280;15142;48.888;9.134;2023-02-24T11:04:59;97203.53;;;8.32
6550;BMP280;15142;48.888;9.134;2023-02-24T11:07:39;97194.41;;;8.31
6550;BMP280;15142;48.888;9.134;2023-02-24T11:10:19;97193.44;;;8.45
6550;BMP280;15142;48.888;9.134;2023-02-24T11:12:54;97191.00;;;8.53
6550;BMP280;15142;48.888;9.134;2023-02-24T11:15:42;97191.63;;;8.45
6550;BMP280;15142;48.888;9.134;2023-02-24T11:18:29;97192.69;;;8.44
6550;BMP280;15142;48.888;9.134;2023-02-24T11:20:58;97181.31;;;8.55
6550;BMP280;15142;48.888;9.134;2023-02-24T11:23:27;97169.72;;;8.81
6550;BMP280;15142;48.888;9.134;2023-02-24T11:25:58;97174.72;;;8.86
6550;BMP280;15142;48.888;9.134;2023-02-24T11:28:39;97166.69;;;8.65
6550;BMP280;15142;48.888;9.134;2023-02-24T11:31:15;97167.34;;;8.71
6550;BMP280;15142;48.888;9.134;2023-02-24T11:33:50;97156.03;;;8.64
6550;BMP280;15142;48.888;9.134;2023-02-24T11:36:25;97160.19;;;8.73
6550;BMP280;15142;48.888;9.134;2023-02-24T11:39:02;97149.25;;;8.72
6550;BMP280;15142;48.888;9.134;2023-02-24T11:41:34;97141.00;;;8.80
6550;BMP280;15142;48.888;9.134;2023-02-24T11:44:10;97148.88;;;8.79
6550;BMP280;15142;48.888;9.134;2023-02-24T11:46:40;97135.34;;;8.83
6550;BMP280;15142;48.888;9.134;2023-02-24T11:49:18;97128.19;;;8.98
6550;BMP280;15142;48.888;9.134;2023-02-24T11:51:48;97119.59;;;8.94
6550;BMP280;15142;48.888;9.134;2023-02-24T11:54:15;97093.13;;;8.95
6550;BMP280;15142;48.888;9.134;2023-02-24T11:56:44;97086.81;;;9.06
6550;BMP280;15142;48.888;9.134;2023-02-24T11:59:16;97080.03;;;9.15
6550;BMP280;15142;48.888;9.134;2023-02-24T12:01:48;97079.53;;;9.40
6550;BMP280;15142;48.888;9.134;2023-02-24T12:04:19;97076.59;;;9.33
6550;BMP280;15142;48.888;9.134;2023-02-24T12:06:51;97091.00;;;9.51
6550;BMP280;15142;48.888;9.134;2023-02-24T12:09:25;97080.81;;;9.51
6550;BMP280;15142;48.888;9.134;2023-02-24T12:11:58;97086.88;;;9.55
6550;BMP280;15142;48.888;9.134;2023-02-24T12:14:34;97067.94;;;9.34
6550;BMP280;15142;48.888;9.134;2023-02-24T12:17:10;97069.53;;;9.30
6550;BMP280;15142;48.888;9.134;2023-02-24T12:19:50;97055.75;;;9.31
6550;BMP280;15142;48.888;9.134;2023-02-24T12:22:21;97043.09;;;9.53
6550;BMP280;15142;48.888;9.134;2023-02-24T12:24:50;97034.06;;;9.47
6550;BMP280;15142;48.888;9.134;2023-02-24T12:27:27;97031.72;;;9.37
6550;BMP280;15142;48.888;9.134;2023-02-24T12:30:05;97028.81;;;9.43
6550;BMP280;15142;48.888;9.134;2023-02-24T12:32:57;97023.09;;;9.59
6550;BMP280;15142;48.888;9.134;2023-02-24T12:35:33;97025.28;;;9.74
6550;BMP280;15142;48.888;9.134;2023-02-24T12:38:17;97022.81;;;9.61
6550;BMP280;15142;48.888;9.134;2023-02-24T12:40:51;97019.28;;;9.70
6550;BMP280;15142;48.888;9.134;2023-02-24T12:43:26;97010.25;;;9.86
6550;BMP280;15142;48.888;9.134;2023-02-24T12:46:03;97007.53;;;10.13
6550;BMP280;15142;48.888;9.134;2023-02-24T12:48:49;97002.06;;;9.76
6550;BMP280;15142;48.888;9.134;2023-02-24T12:51:21;96999.69;;;10.01
6550;BMP280;15142;48.888;9.134;2023-02-24T12:53:58;96999.34;;;9.94
6550;BMP280;15142;48.888;9.134;2023-02-24T12:56:36;96996.91;;;9.89
6550;BMP280;15142;48.888;9.134;2023-02-24T12:59:07;96998.00;;;9.96
6550;BMP280;15142;48.888;9.134;2023-02-24T13:01:46;96987.84;;;10.05
6550;BMP280;15142;48.888;9.134;2023-02-24T13:04:28;96991.78;;;10.11
6550;BMP280;15142;48.888;9.134;2023-02-24T13:07:06;96998.91;;;10.30
6550;BMP280;15142;48.888;9.134;2023-02-24T13:09:40;96982.56;;;10.23
6550;BMP280;15142;48.888;9.134;2023-02-24T13:12:15;96982.13;;;9.99
6550;BMP280;15142;48.888;9.134;2023-02-24T13:14:43;96979.31;;;10.01
6550;BMP280;15142;48.888;9.134;2023-02-24T13:17:20;96977.34;;;10.06
6550;BMP280;15142;48.888;9.134;2023-02-24T13:19:48;96969.91;;;10.10
6550;BMP280;15142;48.888;9.134;2023-02-24T13:22:38;96968.34;;;10.00
6550;BMP280;15142;48.888;9.134;2023-02-24T13:25:17;96960.44;;;9.80
6550;BMP280;15142;48.888;9.134;2023-02-24T13:27:54;96956.97;;;9.76
6550;BMP280;15142;48.888;9.134;2023-02-24T13:30:25;96947.13;;;9.83
6550;BMP280;15142;48.888;9.134;2023-02-24T13:33:03;96953.00;;;9.92
6550;BMP280;15142;48.888;9.134;2023-02-24T13:35:32;96942.78;;;9.84
6550;BMP280;15142;48.888;9.134;2023-02-24T13:38:22;96937.16;;;9.95
6550;BMP280;15142;48.888;9.134;2023-02-24T13:40:49;96923.50;;;9.91
6550;BMP280;15142;48.888;9.134;2023-02-24T13:43:23;96923.81;;;9.98
6550;BMP280;15142;48.888;9.134;2023-02-24T13:45:55;96933.44;;;10.01
6550;BMP280;15142;48.888;9.134;2023-02-24T13:48:37;96912.88;;;9.97
6550;BMP280;15142;48.888;9.134;2023-02-24T13:51:28;96911.41;;;10.05
6550;BMP280;15142;48.888;9.134;2023-02-24T13:54:08;96911.53;;;10.00
6550;BMP280;15142;48.888;9.134;2023-02-24T13:56:43;96909.22;;;9.90
6550;BMP280;15142;48.888;9.134;2023-02-24T14:02:14;96905.78;;;9.86
6550;BMP280;15142;48.888;9.134;2023-02-24T14:04:48;96899.94;;;9.86
6550;BMP280;15142;48.888;9.134;2023-02-24T14:07:20;96902.91;;;9.79
6550;BMP280;15142;48.888;9.134;2023-02-24T14:09:51;96894.94;;;9.81
6550;BMP280;15142;48.888;9.134;2023-02-24T14:12:22;96896.56;;;9.77
6550;BMP280;15142;48.888;9.134;2023-02-24T14:14:49;96894.94;;;9.81
6550;BMP280;15142;48.888;9.134;2023-02-24T14:17:21;96897.75;;;9.71
6550;BMP280;15142;48.888;9.134;2023-02-24T14:19:51;96893.44;;;9.71
6550;BMP280;15142;48.888;9.134;2023-02-24T14:22:19;96892.06;;;9.74
6550;BMP280;15142;48.888;9.134;2023-02-24T14:24:46;96884.03;;;9.58
6550;BMP280;15142;48.888;9.134;2023-02-24T14:27:21;96880.28;;;9.56
6550;BMP280;15142;48.888;9.134;2023-02-24T14:29:50;96883.47;;;9.61
6550;BMP280;15142;48.888;9.134;2023-02-24T14:32:20;96877.03;;;9.64
6550;BMP280;15142;48.888;9.134;2023-02-24T14:34:47;96869.81;;;9.57
6550;BMP280;15142;48.888;9.134;2023-02-24T14:37:15;96871.78;;;9.60
6550;BMP280;15142;48.888;9.134;2023-02-24T14:39:49;96862.19;;;9.57
6550;BMP280;15142;48.888;9.134;2023-02-24T14:42:17;96865.75;;;9.56
6550;BMP280;15142;48.888;9.134;2023-02-24T14:44:47;96856.03;;;9.58
6550;BMP280;15142;48.888;9.134;2023-02-24T14:47:15;96858.19;;;9.65
6550;BMP280;15142;48.888;9.134;2023-02-24T14:49:51;96848.84;;;9.60
6550;BMP280;15142;48.888;9.134;2023-02-24T14:52:28;96841.81;;;9.57
6550;BMP280;15142;48.888;9.134;2023-02-24T14:54:59;96840.00;;;9.58
6550;BMP280;15142;48.888;9.134;2023-02-24T14:57:30;96840.28;;;9.56
6550;BMP280;15142;48.888;9.134;2023-02-24T15:00:01;96840.28;;;9.56
6550;BMP280;15142;48.888;9.134;2023-02-24T15:02:38;96837.31;;;9.55
6550;BMP280;15142;48.888;9.134;2023-02-24T15:05:07;96836.25;;;9.56
6550;BMP280;15142;48.888;9.134;2023-02-24T15:07:37;96835.81;;;9.54
6550;BMP280;15142;48.888;9.134;2023-02-24T15:10:05;96828.91;;;9.54
6550;BMP280;15142;48.888;9.134;2023-02-24T15:12:35;96825.63;;;9.54
6550;BMP280;15142;48.888;9.134;2023-02-24T15:15:06;96824.09;;;9.53
6550;BMP280;15142;48.888;9.134;2023-02-24T15:17:37;96816.47;;;9.53